sensor_id;sensor_type;location;lat;lon;timestamp;pressure;altitude;pressure_sealevel;temperature;humidity
38466;BME280;24244;51.950;5.902;2022-09-27T00:01:13;99504.38;;;12.07;84.37
38466;BME280;24244;51.950;5.902;2022-09-27T00:03:39;99507.81;;;12.08;84.03
38466;BME280;24244;51.950;5.902;2022-09-27T00:06:09;99516.88;;;12.07;84.04
38466;BME280;24244;51.950;5.902;2022-09-27T00:08:36;99523.47;;;12.04;83.85
38466;BME280;24244;51.950;5.902;2022-09-27T00:11:04;99531.88;;;12.01;84.17
38466;BME280;24244;51.950;5.902;2022-09-27T00:13:29;99529.69;;;11.98;84.37
38466;BME280;24244;51.950;5.902;2022-09-27T00:15:57;99535.81;;;11.99;84.14
38466;BME280;24244;51.950;5.902;2022-09-27T00:18:22;99532.34;;;11.98;84.18
38466;BME280;24244;51.950;5.902;2022-09-27T00:20:48;99532.78;;;11.95;84.20
38466;BME280;24244;51.950;5.902;2022-09-27T00:23:14;99531.97;;;11.95;84.47
38466;BME280;24244;51.950;5.902;2022-09-27T00:25:40;99534.88;;;11.93;84.16
38466;BME280;24244;51.950;5.902;2022-09-27T00:28:06;99532.44;;;11.92;84.42
38466;BME280;24244;51.950;5.902;2022-09-27T00:30:31;99539.41;;;11.93;84.37
38466;BME280;24244;51.950;5.902;2022-09-27T00:32:57;99530.59;;;11.92;84.09
38466;BME280;24244;51.950;5.902;2022-09-27T00:35:22;99535.91;;;11.92;84.23
38466;BME280;24244;51.950;5.902;2022-09-27T00:37:48;99543.09;;;11.92;83.94
38466;BME280;24244;51.950;5.902;2022-09-27T00:40:15;99541.91;;;11.88;84.05
38466;BME280;24244;51.950;5.902;2022-09-27T00:42:40;99541.34;;;11.86;84.26
38466;BME280;24244;51.950;5.902;2022-09-27T00:45:11;99544.81;;;11.86;83.97
38466;BME280;24244;51.950;5.902;2022-09-27T00:47:48;99544.22;;;11.84;83.94
38466;BME280;24244;51.950;5.902;2022-09-27T00:50:23;99552.63;;;11.81;83.89
38466;BME280;24244;51.950;5.902;2022-09-27T00:52:59;99546.75;;;11.79;83.94
38466;BME280;24244;51.950;5.902;2022-09-27T00:55:36;99555.28;;;11.81;84.01
38466;BME280;24244;51.950;5.902;2022-09-27T00:58:05;99543.63;;;11.82;83.72
38466;BME280;24244;51.950;5.902;2022-09-27T01:00:31;99543.63;;;11.82;84.12
38466;BME280;24244;51.950;5.902;2022-09-27T01:02:57;99544.22;;;11.84;83.87
38466;BME280;24244;51.950;5.902;2022-09-27T01:05:26;99540.50;;;11.85;83.91
38466;BME280;24244;51.950;5.902;2022-09-27T01:07:52;99553.22;;;11.83;83.81
38466;BME280;24244;51.950;5.902;2022-09-27T01:10:24;99561.22;;;11.83;84.14
38466;BME280;24244;51.950;5.902;2022-09-27T01:12:59;99563.88;;;11.83;83.87
38466;BME280;24244;51.950;5.902;2022-09-27T01:15:37;99562.47;;;11.81;83.65
38466;BME280;24244;51.950;5.902;2022-09-27T01:18:13;99565.94;;;11.81;83.45
38466;BME280;24244;51.950;5.902;2022-09-27T01:21:06;99572.91;;;11.82;83.64
38466;BME280;24244;51.950;5.902;2022-09-27T01:23:49;99574.97;;;11.80;83.81
38466;BME280;24244;51.950;5.902;2022-09-27T01:26:33;99577.63;;;11.80;83.81
38466;BME280;24244;51.950;5.902;2022-09-27T01:29:09;99577.63;;;11.80;83.68
38466;BME280;24244;51.950;5.902;2022-09-27T01:31:40;99573.59;;;11.77;83.71
38466;BME280;24244;51.950;5.902;2022-09-27T01:34:17;99572.75;;;11.77;83.66
38466;BME280;24244;51.950;5.902;2022-09-27T01:36:51;99578.31;;;11.75;83.57
38466;BME280;24244;51.950;5.902;2022-09-27T01:39:31;99577.66;;;11.73;83.46
38466;BME280;24244;51.950;5.902;2022-09-27T01:42:01;99574.88;;;11.68;83.82
38466;BME280;24244;51.950;5.902;2022-09-27T01:44:32;99574.06;;;11.68;83.53
38466;BME280;24244;51.950;5.902;2022-09-27T01:47:03;99574.06;;;11.68;83.60
38466;BME280;24244;51.950;5.902;2022-09-27T01:49:33;99578.34;;;11.69;83.82
38466;BME280;24244;51.950;5.902;2022-09-27T01:52:04;99568.53;;;11.69;83.41
38466;BME280;24244;51.950;5.902;2022-09-27T01:54:34;99577.31;;;11.70;83.50
38466;BME280;24244;51.950;5.902;2022-09-27T01:57:02;99575.91;;;11.67;83.58
38466;BME280;24244;51.950;5.902;2022-09-27T01:59:33;99574.28;;;11.66;83.62
38466;BME280;24244;51.950;5.902;2022-09-27T02:02:06;99569.19;;;11.65;83.55
38466;BME280;24244;51.950;5.902;2022-09-27T02:04:34;99566.53;;;11.65;83.25
38466;BME280;24244;51.950;5.902;2022-09-27T02:07:07;99569.41;;;11.63;83.29
38466;BME280;24244;51.950;5.902;2022-09-27T02:09:38;99564.53;;;11.60;83.46
38466;BME280;24244;51.950;5.902;2022-09-27T02:12:07;99574.81;;;11.57;83.38
38466;BME280;24244;51.950;5.902;2022-09-27T02:14:34;99566.22;;;11.55;83.48
38466;BME280;24244;51.950;5.902;2022-09-27T02:17:08;99568.88;;;11.55;83.63
38466;BME280;24244;51.950;5.902;2022-09-27T02:19:45;99566.22;;;11.55;83.51
38466;BME280;24244;51.950;5.902;2022-09-27T02:22:18;99564.59;;;11.54;83.46
38466;BME280;24244;51.950;5.902;2022-09-27T02:24:50;99568.28;;;11.53;83.32
38466;BME280;24244;51.950;5.902;2022-09-27T02:27:22;99574.88;;;11.50;83.49
38466;BME280;24244;51.950;5.902;2022-09-27T02:29:53;99575.09;;;11.49;83.22
38466;BME280;24244;51.950;5.902;2022-09-27T02:32:24;99571.63;;;11.48;83.16
38466;BME280;24244;51.950;5.902;2022-09-27T02:34:51;99568.16;;;11.48;83.52
38466;BME280;24244;51.950;5.902;2022-09-27T02:37:17;99566.31;;;11.48;82.98
38466;BME280;24244;51.950;5.902;2022-09-27T02:39:42;99570.41;;;11.44;83.34
38466;BME280;24244;51.950;5.902;2022-09-27T02:42:08;99569.03;;;11.42;83.12
38466;BME280;24244;51.950;5.902;2022-09-27T02:44:34;99571.09;;;11.39;83.19
38466;BME280;24244;51.950;5.902;2022-09-27T02:47:15;99570.28;;;11.39;83.00
38466;BME280;24244;51.950;5.902;2022-09-27T02:49:52;99561.94;;;11.35;82.82
38466;BME280;24244;51.950;5.902;2022-09-27T02:52:26;99567.69;;;11.32;83.11
38466;BME280;24244;51.950;5.902;2022-09-27T02:55:06;99557.03;;;11.32;83.01
38466;BME280;24244;51.950;5.902;2022-09-27T02:57:40;99558.28;;;11.30;82.74
38466;BME280;24244;51.950;5.902;2022-09-27T03:00:15;99562.22;;;11.27;82.65
38466;BME280;24244;51.950;5.902;2022-09-27T03:02:50;99562.44;;;11.26;83.02
38466;BME280;24244;51.950;5.902;2022-09-27T03:05:20;99564.50;;;11.24;83.20
38466;BME280;24244;51.950;5.902;2022-09-27T03:07:47;99561.25;;;11.22;82.93
38466;BME280;24244;51.950;5.902;2022-09-27T03:10:16;99565.75;;;11.21;82.87
38466;BME280;24244;51.950;5.902;2022-09-27T03:12:42;99563.09;;;11.21;82.87
38466;BME280;24244;51.950;5.902;2022-09-27T03:15:08;99566.56;;;11.22;83.14
38466;BME280;24244;51.950;5.902;2022-09-27T03:17:35;99564.13;;;11.20;82.99
38466;BME280;24244;51.950;5.902;2022-09-27T03:20:00;99568.84;;;11.18;82.91
38466;BME280;24244;51.950;5.902;2022-09-27T03:22:27;99576.00;;;11.18;82.97
38466;BME280;24244;51.950;5.902;2022-09-27T03:24:52;99576.22;;;11.16;82.93
38466;BME280;24244;51.950;5.902;2022-09-27T03:27:18;99576.47;;;11.15;82.91
38466;BME280;24244;51.950;5.902;2022-09-27T03:29:44;99575.03;;;11.12;82.88
38466;BME280;24244;51.950;5.902;2022-09-27T03:32:09;99571.56;;;11.12;83.23
38466;BME280;24244;51.950;5.902;2022-09-27T03:34:35;99564.84;;;11.09;82.89
38466;BME280;24244;51.950;5.902;2022-09-27T03:37:00;99567.50;;;11.09;83.01
38466;BME280;24244;51.950;5.902;2022-09-27T03:39:27;99576.28;;;11.10;82.90
38466;BME280;24244;51.950;5.902;2022-09-27T03:41:53;99570.16;;;11.09;83.33
38466;BME280;24244;51.950;5.902;2022-09-27T03:44:18;99578.38;;;11.08;82.93
38466;BME280;24244;51.950;5.902;2022-09-27T03:46:44;99576.94;;;11.05;83.22
38466;BME280;24244;51.950;5.902;2022-09-27T03:49:09;99567.34;;;11.04;83.37
38466;BME280;24244;51.950;5.902;2022-09-27T03:51:35;99574.28;;;11.05;82.83
38466;BME280;24244;51.950;5.902;2022-09-27T03:54:00;99582.28;;;11.05;83.04
38466;BME280;24244;51.950;5.902;2022-09-27T03:56:27;99577.75;;;11.06;82.92
38466;BME280;24244;51.950;5.902;2022-09-27T03:58:53;99584.94;;;11.05;83.14
38466;BME280;24244;51.950;5.902;2022-09-27T04:01:18;99577.97;;;11.04;82.82
38466;BME280;24244;51.950;5.902;2022-09-27T04:03:44;99576.56;;;11.02;82.79
38466;BME280;24244;51.950;5.902;2022-09-27T04:06:10;99581.09;;;11.01;82.90
38466;BME280;24244;51.950;5.902;2022-09-27T04:08:35;99585.59;;;11.01;83.12
38466;BME280;24244;51.950;5.902;2022-09-27T04:11:01;99582.94;;;11.01;83.18
38466;BME280;24244;51.950;5.902;2022-09-27T04:13:29;99583.75;;;11.01;83.07
38466;BME280;24244;51.950;5.902;2022-09-27T04:15:54;99583.16;;;10.99;82.80
38466;BME280;24244;51.950;5.902;2022-09-27T04:18:20;99588.66;;;10.97;82.90
38466;BME280;24244;51.950;5.902;2022-09-27T04:20:45;99589.91;;;10.95;82.94
38466;BME280;24244;51.950;5.902;2022-09-27T04:23:11;99593.63;;;10.94;83.16
38466;BME280;24244;51.950;5.902;2022-09-27T04:25:36;99584.84;;;10.93;83.17
38466;BME280;24244;51.950;5.902;2022-09-27T04:28:04;99586.69;;;10.93;83.26
38466;BME280;24244;51.950;5.902;2022-09-27T04:30:31;99581.34;;;10.93;83.14
38466;BME280;24244;51.950;5.902;2022-09-27T04:32:57;99585.66;;;10.94;83.24
38466;BME280;24244;51.950;5.902;2022-09-27T04:35:22;99587.25;;;10.95;83.11
38466;BME280;24244;51.950;5.902;2022-09-27T04:38:06;99585.19;;;10.97;83.11
38466;BME280;24244;51.950;5.902;2022-09-27T04:40:33;99581.50;;;10.98;83.44
38466;BME280;24244;51.950;5.902;2022-09-27T04:42:59;99581.09;;;11.01;83.08
38466;BME280;24244;51.950;5.902;2022-09-27T04:45:25;99583.75;;;11.01;83.30
38466;BME280;24244;51.950;5.902;2022-09-27T04:47:52;99582.69;;;11.02;83.18
38466;BME280;24244;51.950;5.902;2022-09-27T04:50:18;99587.19;;;11.02;83.02
38466;BME280;24244;51.950;5.902;2022-09-27T04:52:48;99589.84;;;11.02;83.06
38466;BME280;24244;51.950;5.902;2022-09-27T04:55:14;99589.84;;;11.02;83.14
38466;BME280;24244;51.950;5.902;2022-09-27T04:57:40;99584.78;;;11.00;83.38
38466;BME280;24244;51.950;5.902;2022-09-27T05:00:06;99591.72;;;11.01;83.13
38466;BME280;24244;51.950;5.902;2022-09-27T05:02:32;99592.50;;;11.02;82.92
38466;BME280;24244;51.950;5.902;2022-09-27T05:04:59;99592.50;;;11.02;82.95
38466;BME280;24244;51.950;5.902;2022-09-27T05:07:25;99592.50;;;11.02;83.16
38466;BME280;24244;51.950;5.902;2022-09-27T05:09:51;99591.72;;;11.01;82.95
38466;BME280;24244;51.950;5.902;2022-09-27T05:12:17;99599.69;;;11.01;83.06
38466;BME280;24244;51.950;5.902;2022-09-27T05:14:43;99606.88;;;11.01;83.12
38466;BME280;24244;51.950;5.902;2022-09-27T05:17:08;99601.34;;;10.95;82.89
38466;BME280;24244;51.950;5.902;2022-09-27T05:19:34;99608.75;;;10.93;83.04
38466;BME280;24244;51.950;5.902;2022-09-27T05:22:01;99603.66;;;10.92;82.97
38466;BME280;24244;51.950;5.902;2022-09-27T05:24:27;99611.03;;;10.90;83.19
38466;BME280;24244;51.950;5.902;2022-09-27T05:26:52;99612.25;;;10.87;83.16
38466;BME280;24244;51.950;5.902;2022-09-27T05:29:18;99610.66;;;10.86;82.98
38466;BME280;24244;51.950;5.902;2022-09-27T05:31:43;99601.03;;;10.85;82.79
38466;BME280;24244;51.950;5.902;2022-09-27T05:34:09;99600.66;;;10.82;82.86
38466;BME280;24244;51.950;5.902;2022-09-27T05:36:35;99602.72;;;10.80;82.67
38466;BME280;24244;51.950;5.902;2022-09-27T05:39:03;99609.06;;;10.79;82.78
38466;BME280;24244;51.950;5.902;2022-09-27T05:41:28;99605.00;;;10.76;82.63
38466;BME280;24244;51.950;5.902;2022-09-27T05:43:54;99604.19;;;10.76;82.73
38466;BME280;24244;51.950;5.902;2022-09-27T05:46:19;99606.84;;;10.76;82.75
38466;BME280;24244;51.950;5.902;2022-09-27T05:48:45;99608.69;;;10.75;82.74
38466;BME280;24244;51.950;5.902;2022-09-27T05:51:10;99613.38;;;10.73;82.62
38466;BME280;24244;51.950;5.902;2022-09-27T05:53:36;99613.63;;;10.72;82.57
38466;BME280;24244;51.950;5.902;2022-09-27T05:56:06;99611.78;;;10.72;82.69
38466;BME280;24244;51.950;5.902;2022-09-27T05:58:31;99614.44;;;10.72;82.60
38466;BME280;24244;51.950;5.902;2022-09-27T06:00:57;99615.66;;;10.70;82.80
38466;BME280;24244;51.950;5.902;2022-09-27T06:03:22;99623.03;;;10.68;82.79
38466;BME280;24244;51.950;5.902;2022-09-27T06:05:47;99630.81;;;10.69;82.65
38466;BME280;24244;51.950;5.902;2022-09-27T06:08:13;99628.13;;;10.69;82.87
38466;BME280;24244;51.950;5.902;2022-09-27T06:10:39;99628.34;;;10.68;82.69
38466;BME280;24244;51.950;5.902;2022-09-27T06:13:09;99627.13;;;10.70;82.96
38466;BME280;24244;51.950;5.902;2022-09-27T06:15:36;99636.94;;;10.70;82.90
38466;BME280;24244;51.950;5.902;2022-09-27T06:18:03;99641.44;;;10.69;83.01
38466;BME280;24244;51.950;5.902;2022-09-27T06:20:30;99629.97;;;10.69;82.73
38466;BME280;24244;51.950;5.902;2022-09-27T06:23:02;99651.25;;;10.69;82.98
38466;BME280;24244;51.950;5.902;2022-09-27T06:25:28;99645.13;;;10.68;82.73
38466;BME280;24244;51.950;5.902;2022-09-27T06:27:53;99645.13;;;10.68;82.75
38466;BME280;24244;51.950;5.902;2022-09-27T06:30:20;99637.75;;;10.70;83.03
38466;BME280;24244;51.950;5.902;2022-09-27T06:32:46;99644.09;;;10.69;82.79
38466;BME280;24244;51.950;5.902;2022-09-27T06:35:11;99644.91;;;10.70;82.99
38466;BME280;24244;51.950;5.902;2022-09-27T06:37:37;99648.38;;;10.70;82.78
38466;BME280;24244;51.950;5.902;2022-09-27T06:40:02;99644.91;;;10.70;82.92
38466;BME280;24244;51.950;5.902;2022-09-27T06:42:28;99654.94;;;10.68;82.81
38466;BME280;24244;51.950;5.902;2022-09-27T06:44:54;99650.44;;;10.68;83.17
38466;BME280;24244;51.950;5.902;2022-09-27T06:47:21;99655.53;;;10.70;83.16
38466;BME280;24244;51.950;5.902;2022-09-27T06:49:47;99656.34;;;10.70;83.19
38466;BME280;24244;51.950;5.902;2022-09-27T06:52:13;99648.16;;;10.72;83.14
38466;BME280;24244;51.950;5.902;2022-09-27T06:54:39;99649.81;;;10.73;83.21
38466;BME280;24244;51.950;5.902;2022-09-27T06:57:04;99649.56;;;10.74;82.98
38466;BME280;24244;51.950;5.902;2022-09-27T06:59:30;99653.84;;;10.75;83.13
38466;BME280;24244;51.950;5.902;2022-09-27T07:02:13;99657.13;;;10.77;83.18
38466;BME280;24244;51.950;5.902;2022-09-27T07:04:41;99665.47;;;10.81;83.14
38466;BME280;24244;51.950;5.902;2022-09-27T07:07:07;99665.47;;;10.81;83.05
38466;BME280;24244;51.950;5.902;2022-09-27T07:09:33;99665.06;;;10.84;83.44
38466;BME280;24244;51.950;5.902;2022-09-27T07:11:58;99673.19;;;10.89;83.15
38466;BME280;24244;51.950;5.902;2022-09-27T07:14:24;99678.09;;;10.92;83.46
38466;BME280;24244;51.950;5.902;2022-09-27T07:16:51;99685.63;;;10.95;83.42
38466;BME280;24244;51.950;5.902;2022-09-27T07:19:16;99679.88;;;10.98;83.55
38466;BME280;24244;51.950;5.902;2022-09-27T07:21:43;99675.19;;;11.00;83.51
38466;BME280;24244;51.950;5.902;2022-09-27T07:24:09;99675.53;;;11.04;83.51
38466;BME280;24244;51.950;5.902;2022-09-27T07:26:35;99676.97;;;11.06;83.45
38466;BME280;24244;51.950;5.902;2022-09-27T07:29:00;99676.75;;;11.08;83.41
38466;BME280;24244;51.950;5.902;2022-09-27T07:31:26;99674.91;;;11.08;83.51
38466;BME280;24244;51.950;5.902;2022-09-27T07:33:53;99671.22;;;11.09;83.66
38466;BME280;24244;51.950;5.902;2022-09-27T07:36:18;99675.06;;;11.13;83.46
38466;BME280;24244;51.950;5.902;2022-09-27T07:38:45;99683.66;;;11.15;83.68
38466;BME280;24244;51.950;5.902;2022-09-27T07:41:12;99683.22;;;11.18;83.67
38466;BME280;24244;51.950;5.902;2022-09-27T07:43:42;99689.13;;;11.20;83.73
38466;BME280;24244;51.950;5.902;2022-09-27T07:46:11;99693.44;;;11.21;83.68
38466;BME280;24244;51.950;5.902;2022-09-27T07:48:37;99694.00;;;11.23;83.91
38466;BME280;24244;51.950;5.902;2022-09-27T07:51:03;99688.47;;;11.25;83.69
38466;BME280;24244;51.950;5.902;2022-09-27T07:53:31;99690.72;;;11.28;83.73
38466;BME280;24244;51.950;5.902;2022-09-27T07:55:59;99698.84;;;11.33;84.18
38466;BME280;24244;51.950;5.902;2022-09-27T07:58:28;99705.59;;;11.35;84.16
38466;BME280;24244;51.950;5.902;2022-09-27T08:00:54;99705.97;;;11.39;83.94
38466;BME280;24244;51.950;5.902;2022-09-27T08:03:20;99707.59;;;11.40;84.07
38466;BME280;24244;51.950;5.902;2022-09-27T08:05:47;99709.84;;;11.43;84.17
38466;BME280;24244;51.950;5.902;2022-09-27T08:08:12;99706.94;;;11.45;84.14
38466;BME280;24244;51.950;5.902;2022-09-27T08:10:38;99712.06;;;11.46;83.92
38466;BME280;24244;51.950;5.902;2022-09-27T08:13:10;99718.78;;;11.49;84.00
38466;BME280;24244;51.950;5.902;2022-09-27T08:15:35;99715.69;;;11.52;84.03
38466;BME280;24244;51.950;5.902;2022-09-27T08:18:03;99713.03;;;11.52;83.97
38466;BME280;24244;51.950;5.902;2022-09-27T08:20:30;99718.94;;;11.54;84.21
38466;BME280;24244;51.950;5.902;2022-09-27T08:22:56;99726.50;;;11.57;83.94
38466;BME280;24244;51.950;5.902;2022-09-27T08:25:21;99723.03;;;11.56;84.29
38466;BME280;24244;51.950;5.902;2022-09-27T08:27:54;99726.88;;;11.60;84.03
38466;BME280;24244;51.950;5.902;2022-09-27T08:30:21;99734.84;;;11.60;83.97
38466;BME280;24244;51.950;5.902;2022-09-27T08:32:47;99727.91;;;11.59;84.34
38466;BME280;24244;51.950;5.902;2022-09-27T08:35:12;99739.38;;;11.60;84.27
38466;BME280;24244;51.950;5.902;2022-09-27T08:37:39;99736.69;;;11.60;84.43
38466;BME280;24244;51.950;5.902;2022-09-27T08:40:06;99735.69;;;11.61;84.17
38466;BME280;24244;51.950;5.902;2022-09-27T08:42:36;99738.13;;;11.62;83.97
38466;BME280;24244;51.950;5.902;2022-09-27T08:45:11;99737.91;;;11.64;84.10
38466;BME280;24244;51.950;5.902;2022-09-27T08:47:42;99739.97;;;11.62;84.18
38466;BME280;24244;51.950;5.902;2022-09-27T08:50:20;99738.13;;;11.62;83.98
38466;BME280;24244;51.950;5.902;2022-09-27T08:52:51;99729.94;;;11.64;84.31
38466;BME280;24244;51.950;5.902;2022-09-27T08:55:24;99740.13;;;11.67;84.11
38466;BME280;24244;51.950;5.902;2022-09-27T08:57:54;99736.44;;;11.68;84.22
38466;BME280;24244;51.950;5.902;2022-09-27T09:00:20;99738.88;;;11.69;84.04
38466;BME280;24244;51.950;5.902;2022-09-27T09:02:47;99732.31;;;11.72;84.23
38466;BME280;24244;51.950;5.902;2022-09-27T09:05:18;99735.38;;;11.75;84.31
38466;BME280;24244;51.950;5.902;2022-09-27T09:07:57;99732.50;;;11.77;84.22
38466;BME280;24244;51.950;5.902;2022-09-27T09:10:37;99737.81;;;11.77;84.00
38466;BME280;24244;51.950;5.902;2022-09-27T09:13:44;99736.19;;;11.76;84.22
38466;BME280;24244;51.950;5.902;2022-09-27T09:16:20;99735.97;;;11.77;84.18
38466;BME280;24244;51.950;5.902;2022-09-27T09:19:06;99737.38;;;11.80;84.26
38466;BME280;24244;51.950;5.902;2022-09-27T09:21:40;99740.63;;;11.82;84.21
38466;BME280;24244;51.950;5.902;2022-09-27T09:24:20;99743.28;;;11.82;83.92
38466;BME280;24244;51.950;5.902;2022-09-27T09:26:53;99748.03;;;11.80;83.89
38466;BME280;24244;51.950;5.902;2022-09-27T09:29:30;99748.03;;;11.80;83.82
38466;BME280;24244;51.950;5.902;2022-09-27T09:32:09;99742.34;;;11.76;84.02
38466;BME280;24244;51.950;5.902;2022-09-27T09:34:46;99744.53;;;11.80;83.59
38466;BME280;24244;51.950;5.902;2022-09-27T09:37:16;99744.53;;;11.80;83.71
38466;BME280;24244;51.950;5.902;2022-09-27T09:39:46;99744.34;;;11.81;83.61
38466;BME280;24244;51.950;5.902;2022-09-27T09:42:19;99740.63;;;11.82;83.71
38466;BME280;24244;51.950;5.902;2022-09-27T09:44:53;99739.19;;;11.86;83.88
38466;BME280;24244;51.950;5.902;2022-09-27T09:47:26;99732.78;;;11.87;83.90
38466;BME280;24244;51.950;5.902;2022-09-27T09:49:58;99745.09;;;11.88;83.82
38466;BME280;24244;51.950;5.902;2022-09-27T09:52:31;99734.44;;;11.88;84.00
38466;BME280;24244;51.950;5.902;2022-09-27T09:55:03;99731.19;;;11.86;83.90
38466;BME280;24244;51.950;5.902;2022-09-27T09:57:34;99736.28;;;11.88;84.16
38466;BME280;24244;51.950;5.902;2022-09-27T10:00:06;99739.75;;;11.88;83.74
38466;BME280;24244;51.950;5.902;2022-09-27T10:02:38;99737.31;;;11.87;83.52
38466;BME280;24244;51.950;5.902;2022-09-27T10:05:06;99732.22;;;11.85;84.02
38466;BME280;24244;51.950;5.902;2022-09-27T10:07:36;99731.41;;;11.85;84.05
38466;BME280;24244;51.950;5.902;2022-09-27T10:10:03;99744.13;;;11.83;83.94
38466;BME280;24244;51.950;5.902;2022-09-27T10:12:30;99736.72;;;11.85;83.84
38466;BME280;24244;51.950;5.902;2022-09-27T10:14:58;99740.56;;;11.89;83.58
38466;BME280;24244;51.950;5.902;2022-09-27T10:17:27;99740.34;;;11.90;83.65
38466;BME280;24244;51.950;5.902;2022-09-27T10:19:57;99741.38;;;11.89;83.38
38466;BME280;24244;51.950;5.902;2022-09-27T10:22:28;99742.63;;;11.87;83.35
38466;BME280;24244;51.950;5.902;2022-09-27T10:24:57;99745.53;;;11.85;83.36
38466;BME280;24244;51.950;5.902;2022-09-27T10:27:24;99752.09;;;11.83;83.29
38466;BME280;24244;51.950;5.902;2022-09-27T10:29:55;99745.97;;;11.82;83.51
38466;BME280;24244;51.950;5.902;2022-09-27T10:32:24;99745.34;;;11.80;83.43
38466;BME280;24244;51.950;5.902;2022-09-27T10:34:51;99750.69;;;11.80;83.20
38466;BME280;24244;51.950;5.902;2022-09-27T10:37:19;99747.44;;;11.78;83.20
38466;BME280;24244;51.950;5.902;2022-09-27T10:39:48;99742.13;;;11.78;83.07
38466;BME280;24244;51.950;5.902;2022-09-27T10:42:30;99750.94;;;11.79;83.63
38466;BME280;24244;51.950;5.902;2022-09-27T10:44:58;99748.69;;;11.75;82.91
38466;BME280;24244;51.950;5.902;2022-09-27T10:47:45;99746.66;;;11.71;83.24
38466;BME280;24244;51.950;5.902;2022-09-27T10:50:18;99746.06;;;11.69;83.41
38466;BME280;24244;51.950;5.902;2022-09-27T10:52:46;99743.38;;;11.69;82.92
38466;BME280;24244;51.950;5.902;2022-09-27T10:55:21;99750.34;;;11.70;82.91
38466;BME280;24244;51.950;5.902;2022-09-27T10:57:48;99753.38;;;11.73;82.80
38466;BME280;24244;51.950;5.902;2022-09-27T11:00:21;99752.78;;;11.78;83.11
38466;BME280;24244;51.950;5.902;2022-09-27T11:02:51;99750.94;;;11.79;82.99
38466;BME280;24244;51.950;5.902;2022-09-27T11:05:30;99761.78;;;11.77;82.88
38466;BME280;24244;51.950;5.902;2022-09-27T11:07:57;99759.13;;;11.77;82.56
38466;BME280;24244;51.950;5.902;2022-09-27T11:10:24;99755.66;;;11.76;82.73
38466;BME280;24244;51.950;5.902;2022-09-27T11:13:10;99750.94;;;11.79;82.97
38466;BME280;24244;51.950;5.902;2022-09-27T11:15:53;99757.06;;;11.79;82.65
38466;BME280;24244;51.950;5.902;2022-09-27T11:18:29;99752.31;;;11.81;82.47
38466;BME280;24244;51.950;5.902;2022-09-27T11:21:02;99754.78;;;11.83;82.69
38466;BME280;24244;51.950;5.902;2022-09-27T11:23:46;99756.63;;;11.82;82.52
38466;BME280;24244;51.950;5.902;2022-09-27T11:26:28;99753.13;;;11.82;82.17
38466;BME280;24244;51.950;5.902;2022-09-27T11:29:01;99758.03;;;11.85;82.47
38466;BME280;24244;51.950;5.902;2022-09-27T11:31:39;99752.03;;;11.89;82.52
38466;BME280;24244;51.950;5.902;2022-09-27T11:34:19;99756.69;;;11.94;82.48
38466;BME280;24244;51.950;5.902;2022-09-27T11:37:04;99754.22;;;11.99;82.42
38466;BME280;24244;51.950;5.902;2022-09-27T11:39:41;99752.50;;;12.04;82.22
38466;BME280;24244;51.950;5.902;2022-09-27T11:42:29;99753.69;;;12.08;82.15
38466;BME280;24244;51.950;5.902;2022-09-27T11:45:12;99750.59;;;12.11;82.15
38466;BME280;24244;51.950;5.902;2022-09-27T11:47:48;99753.19;;;12.18;82.33
38466;BME280;24244;51.950;5.902;2022-09-27T11:50:50;99761.31;;;12.23;82.28
38466;BME280;24244;51.950;5.902;2022-09-27T11:53:25;99763.16;;;12.23;82.13
38466;BME280;24244;51.950;5.902;2022-09-27T11:56:00;99757.69;;;12.18;81.89
38466;BME280;24244;51.950;5.902;2022-09-27T11:58:30;99760.38;;;12.18;82.12
38466;BME280;24244;51.950;5.902;2022-09-27T12:01:06;99761.41;;;12.16;81.83
38466;BME280;24244;51.950;5.902;2022-09-27T12:06:46;99758.16;;;12.14;81.76
38466;BME280;24244;51.950;5.902;2022-09-27T12:09:16;99759.41;;;12.12;81.77
38466;BME280;24244;51.950;5.902;2022-09-27T12:11:47;99753.03;;;12.13;81.79
38466;BME280;24244;51.950;5.902;2022-09-27T12:14:20;99756.75;;;12.12;81.61
38466;BME280;24244;51.950;5.902;2022-09-27T12:16:51;99753.88;;;12.13;81.85
38466;BME280;24244;51.950;5.902;2022-09-27T12:19:21;99754.69;;;12.14;81.57
38466;BME280;24244;51.950;5.902;2022-09-27T12:21:49;99750.16;;;12.14;81.46
38466;BME280;24244;51.950;5.902;2022-09-27T12:24:19;99752.22;;;12.12;81.57
38466;BME280;24244;51.950;5.902;2022-09-27T12:26:47;99753.88;;;12.13;81.44
38466;BME280;24244;51.950;5.902;2022-09-27T12:29:19;99754.69;;;12.14;81.43
38466;BME280;24244;51.950;5.902;2022-09-27T12:31:51;99747.25;;;12.16;81.67
38466;BME280;24244;51.950;5.902;2022-09-27T12:34:23;99751.13;;;12.20;81.63
38466;BME280;24244;51.950;5.902;2022-09-27T12:36:57;99741.84;;;12.23;81.17
38466;BME280;24244;51.950;5.902;2022-09-27T12:39:27;99745.94;;;12.25;81.15
38466;BME280;24244;51.950;5.902;2022-09-27T12:42:01;99743.50;;;12.24;81.22
38466;BME280;24244;51.950;5.902;2022-09-27T12:44:36;99742.09;;;12.21;80.94
38466;BME280;24244;51.950;5.902;2022-09-27T12:47:07;99744.97;;;12.20;81.16
38466;BME280;24244;51.950;5.902;2022-09-27T12:49:41;99737.81;;;12.20;81.23
38466;BME280;24244;51.950;5.902;2022-09-27T12:52:17;99749.72;;;12.18;81.18
38466;BME280;24244;51.950;5.902;2022-09-27T12:55:00;99744.84;;;12.14;81.22
38466;BME280;24244;51.950;5.902;2022-09-27T12:57:41;99747.94;;;12.11;81.38
38466;BME280;24244;51.950;5.902;2022-09-27T13:00:16;99743.84;;;12.09;81.27
38466;BME280;24244;51.950;5.902;2022-09-27T13:03:10;99753.69;;;12.08;81.47
38466;BME280;24244;51.950;5.902;2022-09-27T13:06:02;99750.44;;;12.06;81.36
38466;BME280;24244;51.950;5.902;2022-09-27T13:08:55;99748.59;;;12.07;81.12
38466;BME280;24244;51.950;5.902;2022-09-27T13:11:28;99751.91;;;12.02;81.13
38466;BME280;24244;51.950;5.902;2022-09-27T13:14:04;99747.84;;;12.00;80.93
38466;BME280;24244;51.950;5.902;2022-09-27T13:16:41;99747.25;;;11.98;81.24
38466;BME280;24244;51.950;5.902;2022-09-27T13:19:36;99749.91;;;11.98;81.05